Flight Track Log - Related Links

Times and Time Zones

All times are in EDT time to prevent confusion due to time zone crossing. See the SWA559 flight status page for this flight to view local times or setup timezone preferences in your user account.

Time Position Orientation Groundspeed Altitude Reporting Facility
EDT Latitude Longitude Course Direction KTS MPH feet Rate Location/Type
Mon 09:37:28 PM 36.1086 -115.1494 62° Northeast 158 182 3,400  Level Los Angeles Center
Mon 09:38:17 PM 36.1303 -115.0997 62° Northeast 223 257 5,200 2,377 Climbing Los Angeles Center
Mon 09:39:14 PM 36.1378 -115.0183 83° East 245 282 7,600 2,723 Climbing Los Angeles Center
Mon 09:40:16 PM 36.1486 -114.9175 82° East 282 325 10,600 2,565 Climbing Los Angeles Center
Mon 09:41:18 PM 36.1600 -114.8053 83° East 320 368 12,900 2,585 Climbing Los Angeles Center
Mon 09:42:19 PM 36.1867 -114.6906 74° East 341 392 15,900 2,878 Climbing Los Angeles Center
Mon 09:43:21 PM 36.1886 -114.5667 89° East 357 411 18,800 2,585 Climbing Los Angeles Center
Mon 09:44:22 PM 36.1900 -114.4392 89° East 368 423 21,200 2,488 Climbing Los Angeles Center
Mon 09:45:24 PM 36.1911 -114.2794 89° East 382 440 23,900 2,244 Climbing Los Angeles Center
Mon 09:46:25 PM 36.2014 -114.1444 85° East 392 451 25,800 1,756 Climbing Los Angeles Center
Mon 09:47:27 PM 36.2206 -114.0064 80° East 403 464 27,500 1,452 Climbing Los Angeles Center
Mon 09:48:29 PM 36.2375 -113.8628 82° East 415 478 28,800 1,122 Climbing Los Angeles Center
Mon 09:49:30 PM 36.2558 -113.7103 81° East 437 503 29,800 1,122 Climbing Los Angeles Center
Mon 09:50:32 PM 36.2736 -113.5522 82° East 456 525 31,100 1,171 Climbing Los Angeles Center
Mon 09:51:33 PM 36.2917 -113.3908 82° East 469 540 32,200 1,268 Climbing Los Angeles Center
Mon 09:52:35 PM 36.3175 -113.2064 80° East 478 550 33,700 1,403 Climbing Los Angeles Center
Mon 09:53:37 PM 36.3719 -113.0594 65° Northeast 476 548 35,100 1,122 Climbing Los Angeles Center
Mon 09:54:38 PM 36.4275 -112.9100 65° Northeast 477 549 36,000 829 Climbing Los Angeles Center
Mon 09:55:40 PM 36.4831 -112.7611 65° Northeast 477 549 36,800 488 Climbing Los Angeles Center
Mon 09:56:41 PM 36.5392 -112.6083 65° Northeast 484 557 37,000 98 Climbing Los Angeles Center
Mon 09:57:43 PM 36.6069 -112.4239 65° Northeast 490 564 37,000  Level Los Angeles Center
Mon 09:58:45 PM 36.6642 -112.2689 65° Northeast 493 567 37,000  Level Los Angeles Center
Mon 09:59:46 PM 36.7206 -112.1150 65° Northeast 493 567 37,000  Level Los Angeles Center
Mon 10:00:23 PM 36.7519 -112.0236 67° East 494 568 37,000  Level Denver Center
Mon 10:01:24 PM 36.8092 -111.8667 65° Northeast 497 572 37,000  Level Denver Center
Mon 10:02:26 PM 36.8658 -111.7094 66° East 498 573 37,000  Level Denver Center
Mon 10:03:28 PM 36.9217 -111.5542 66° East 496 571 37,000  Level Denver Center
Mon 10:04:29 PM 36.9769 -111.3981 66° East 495 570 37,000  Level Denver Center
Mon 10:05:31 PM 37.0406 -111.2131 67° East 489 563 37,000  Level Denver Center
Mon 10:06:32 PM 37.0936 -111.0583 67° East 485 558 37,000  Level Denver Center
Mon 10:07:34 PM 37.1475 -110.9022 67° East 490 564 37,000  Level Denver Center
Mon 10:08:36 PM 37.2019 -110.7475 66° East 487 560 37,000  Level Denver Center
Mon 10:09:37 PM 37.2544 -110.5919 67° East 486 559 37,000  Level Denver Center
Mon 10:10:39 PM 37.3083 -110.4375 66° East 485 558 37,000  Level Denver Center
Mon 10:11:41 PM 37.3714 -110.2517 67° East 484 557 37,000  Level Denver Center
Mon 10:12:43 PM 37.4181 -110.1100 67° East 481 554 37,000  Level Denver Center
Mon 10:13:44 PM 37.4781 -109.9344 67° East 488 562 37,000  Level Denver Center
Mon 10:14:46 PM 37.5283 -109.7822 67° East 490 564 37,000  Level Denver Center
Mon 10:15:47 PM 37.5797 -109.6297 67° East 492 566 37,000  Level Denver Center
Mon 10:16:49 PM 37.6389 -109.4486 68° East 497 572 37,000  Level Denver Center
Mon 10:17:51 PM 37.6908 -109.2914 67° East 503 579 37,000  Level Denver Center
Mon 10:18:52 PM 37.7489 -109.1139 67° East 489 563 37,000  Level Denver Center
Mon 10:19:54 PM 37.7989 -108.9606 68° East 490 564 37,000  Level Denver Center
Mon 10:20:56 PM 37.8600 -108.7833 66° East 492 566 37,000  Level Denver Center
Mon 10:21:58 PM 37.9142 -108.6300 66° East 496 571 37,000  Level Denver Center
Mon 10:22:59 PM 37.9672 -108.4783 66° East 494 568 37,000  Level Denver Center
Mon 10:24:01 PM 38.0297 -108.2981 66° East 495 570 37,000  Level Denver Center
Mon 10:25:03 PM 38.0833 -108.1406 67° East 501 577 37,000  Level Denver Center
Mon 10:26:04 PM 38.1444 -107.9592 67° East 502 578 37,000  Level Denver Center
Mon 10:27:06 PM 38.1964 -107.8050 67° East 499 574 37,000  Level Denver Center
Mon 10:28:08 PM 38.2578 -107.6239 67° East 500 575 37,000  Level Denver Center
Mon 10:29:10 PM 38.3111 -107.4664 67° East 506 582 37,000  Level Denver Center
Mon 10:30:11 PM 38.3636 -107.3058 67° East 513 590 37,000  Level Denver Center
Mon 10:31:13 PM 38.4203 -107.1347 67° East 512 589 37,000  Level Denver Center
Mon 10:32:15 PM 38.4675 -106.9664 70° East 502 578 37,000  Level Denver Center
Mon 10:33:17 PM 38.5014 -106.7911 76° East 508 585 37,000  Level Denver Center
Mon 10:34:19 PM 38.5419 -106.5817 76° East 511 588 37,000  Level Denver Center
Mon 10:35:20 PM 38.5769 -106.4075 76° East 509 586 37,000  Level Denver Center
Mon 10:36:22 PM 38.6097 -106.2342 76° East 503 579 37,000  Level Denver Center
Mon 10:37:24 PM 38.6461 -106.0514 76° East 500 575 37,000  Level Denver Center
Mon 10:38:26 PM 38.6783 -105.8778 77° East 499 574 37,000  Level Denver Center
Mon 10:39:27 PM 38.7111 -105.7047 76° East 498 573 37,000  Level Denver Center
Mon 10:40:29 PM 38.7436 -105.5317 76° East 497 572 37,000  Level Denver Center
Mon 10:41:31 PM 38.7744 -105.3572 77° East 499 574 37,000  Level Denver Center
Mon 10:42:33 PM 38.8106 -105.1622 77° East 483 556 37,000  Level Denver Center
Mon 10:43:34 PM 38.8411 -104.9947 77° East 480 552 37,000  Level Denver Center
Mon 10:44:36 PM 38.8711 -104.8303 77° East 474 545 37,000  Level Denver Center
Mon 10:45:38 PM 38.9017 -104.6631 77° East 480 552 37,000  Level Denver Center
Mon 10:46:39 PM 38.9311 -104.4956 77° East 480 552 37,000  Level Denver Center
Mon 10:47:41 PM 38.9608 -104.3236 77° East 488 562 37,000  Level Denver Center
Mon 10:48:43 PM 38.9908 -104.1525 77° East 490 564 37,000  Level Denver Center
Mon 10:49:45 PM 39.0206 -103.9761 78° East 498 573 37,000  Level Denver Center
Mon 10:50:46 PM 39.0553 -103.7722 78° East 499 574 37,000  Level Denver Center
Mon 10:51:48 PM 39.0853 -103.5956 78° East 502 578 37,000  Level Denver Center
Mon 10:52:50 PM 39.1144 -103.4206 78° East 499 574 37,000  Level Denver Center
Mon 10:53:51 PM 39.1444 -103.2411 78° East 508 585 37,000  Level Denver Center
Mon 10:54:53 PM 39.1742 -103.0625 78° East 509 586 37,000  Level Denver Center
Mon 10:55:55 PM 39.2022 -102.8833 79° East 507 583 37,000  Level Denver Center
Mon 10:56:56 PM 39.2347 -102.6861 78° East 519 597 37,000  Level Denver Center
Mon 10:57:58 PM 39.2603 -102.5119 79° East 518 596 37,000  Level Denver Center
Mon 10:59:00 PM 39.2933 -102.3075 78° East 520 598 37,000  Level Denver Center
Mon 11:00:01 PM 39.3206 -102.1364 78° East 512 589 37,000  Level Denver Center
Mon 11:01:03 PM 39.3467 -101.9578 79° East 505 581 37,000  Level Denver Center
Mon 11:02:05 PM 39.3767 -101.7628 79° East 499 574 37,000  Level Denver Center
Mon 11:03:06 PM 39.4028 -101.5942 79° East 500 575 37,000  Level Denver Center
Mon 11:04:08 PM 39.4381 -101.3986 77° East 500 575 37,000  Level Denver Center
Mon 11:05:09 PM 39.4681 -101.2300 77° East 504 580 37,000  Level Denver Center
Mon 11:06:11 PM 39.4953 -101.0622 78° East 500 575 37,000  Level Denver Center
Mon 11:07:13 PM 39.5281 -100.8669 78° East 501 577 37,000  Level Denver Center
Mon 11:08:14 PM 39.5556 -100.6978 78° East 503 579 37,000  Level Denver Center
Mon 11:09:16 PM 39.5881 -100.4972 78° East 510 587 37,000  Level Denver Center
Mon 11:10:17 PM 39.6164 -100.3250 78° East 511 588 37,000  Level Denver Center
Mon 11:11:19 PM 39.6489 -100.1211 78° East 515 593 37,000  Level Denver Center
Mon 11:13:22 PM 39.7042 -99.7681 78° East 519 597 37,000  Level Denver Center
Mon 11:14:24 PM 39.7336 -99.5853 78° East 519 597 37,000  Level Denver Center
Mon 11:15:25 PM 39.7667 -99.3644 79° East 520 598 37,000  Level Denver Center
Mon 11:16:27 PM 39.7939 -99.1822 79° East 517 595 37,000  Level Denver Center
Mon 11:17:28 PM 39.8217 -98.9975 79° East 520 598 37,000  Level Denver Center
Mon 11:18:30 PM 39.8489 -98.8136 79° East 520 598 37,000  Level Denver Center
Mon 11:19:31 PM 39.8750 -98.6303 79° East 520 598 37,000  Level Minneapolis Center
Mon 11:20:32 PM 39.9011 -98.4467 79° East 518 596 37,000  Level Minneapolis Center
Mon 11:21:33 PM 39.9281 -98.2619 79° East 519 597 37,000  Level Minneapolis Center
Mon 11:22:34 PM 39.9539 -98.0814 79° East 514 592 37,000  Level Minneapolis Center
Mon 11:23:36 PM 39.9786 -97.8981 80° East 514 592 37,000  Level Minneapolis Center
Mon 11:24:37 PM 40.0092 -97.6808 80° East 510 587 37,000  Level Minneapolis Center
Mon 11:25:38 PM 40.0331 -97.4969 80° East 514 592 37,000  Level Minneapolis Center
Mon 11:26:39 PM 40.0578 -97.3178 80° East 508 585 37,000  Level Minneapolis Center
Mon 11:27:40 PM 40.0778 -97.1597 81° East 511 588 37,000  Level Minneapolis Center
Mon 11:28:41 PM 40.1069 -96.9408 80° East 511 588 37,000  Level Minneapolis Center
Mon 11:29:42 PM 40.1303 -96.7594 80° East 510 587 37,000  Level Minneapolis Center
Mon 11:30:43 PM 40.1544 -96.5753 80° East 514 592 37,000  Level Minneapolis Center
Mon 11:31:44 PM 40.1764 -96.3925 81° East 513 590 37,000  Level Minneapolis Center
Mon 11:32:45 PM 40.1997 -96.2069 81° East 517 595 37,000  Level Minneapolis Center
Mon 11:33:46 PM 40.2339 -96.0269 76° East 514 592 37,000  Level Minneapolis Center
Mon 11:34:47 PM 40.2600 -95.8406 80° East 522 601 37,000 443 Level Minneapolis Center
Mon 11:35:48 PM 40.2817 -95.6575 81° East 517 595 37,900 934 Climbing Minneapolis Center
Mon 11:36:49 PM 40.3036 -95.4753 81° East 512 589 38,900 541 Climbing Minneapolis Center
Mon 11:37:50 PM 40.3253 -95.2936 81° East 509 586 39,000 49 Climbing Minneapolis Center
Mon 11:38:51 PM 40.3364 -95.1097 85° East 510 587 39,000  Level Minneapolis Center
Mon 11:39:52 PM 40.3333 -94.8881 91° East 509 586 39,000  Level Minneapolis Center
Mon 11:40:53 PM 40.3317 -94.7033 91° East 509 586 39,000  Level Minneapolis Center
Mon 11:41:54 PM 40.3286 -94.5314 91° East 508 585 39,000  Level Minneapolis Center
Mon 11:42:55 PM 40.3269 -94.3481 91° East 508 585 39,000  Level Minneapolis Center
Mon 11:43:40 PM 40.3239 -94.2128 92° East 506 582 39,000  Level Kansas City Center
Mon 11:44:41 PM 40.3197 -94.0169 92° East 511 588 39,000  Level Kansas City Center
Mon 11:45:44 PM 40.3175 -93.8314 91° East 513 590 39,000  Level Kansas City Center
Mon 11:46:45 PM 40.3297 -93.6497 85° East 510 587 39,000  Level Kansas City Center
Mon 11:47:46 PM 40.3528 -93.4667 81° East 511 588 39,000  Level Kansas City Center
Mon 11:48:47 PM 40.3736 -93.2839 81° East 509 586 39,000  Level Kansas City Center
Mon 11:49:48 PM 40.3964 -93.1003 81° East 513 590 39,000  Level Kansas City Center
Mon 11:50:46 PM 40.4186 -92.8836 82° East 509 586 39,000  Level Kansas City Center
Mon 11:51:48 PM 40.4389 -92.7078 81° East 508 585 39,000  Level Kansas City Center
Mon 11:52:48 PM 40.4586 -92.5269 82° East 511 588 39,000  Level Kansas City Center
Mon 11:53:51 PM 40.4786 -92.3425 82° East 510 587 39,000  Level Kansas City Center
Mon 11:54:50 PM 40.5000 -92.1358 82° East 512 589 39,000  Level Kansas City Center
Mon 11:55:52 PM 40.5186 -91.9528 82° East 510 587 39,000  Level Kansas City Center
Mon 11:56:54 PM 40.5375 -91.7683 82° East 512 589 39,000  Level Kansas City Center
Mon 11:57:55 PM 40.5547 -91.5853 83° East 510 587 39,000  Level Kansas City Center
Mon 11:58:35 PM 40.5656 -91.4756 83° East 509 586 39,000  Level Chicago Center
Mon 11:59:36 PM 40.5858 -91.2717 82° East 510 587 39,000  Level Chicago Center
Tue 12:00:36 AM 40.6042 -91.0881 82° East 507 583 39,000  Level Chicago Center
Tue 12:01:37 AM 40.6214 -90.9047 83° East 507 583 39,000  Level Chicago Center
Tue 12:02:38 AM 40.6378 -90.7200 83° East 507 583 39,000  Level Chicago Center
Tue 12:03:39 AM 40.6536 -90.5344 84° East 510 587 39,000  Level Chicago Center
Tue 12:04:39 AM 40.6708 -90.3497 83° East 509 586 39,000  Level Chicago Center
Tue 12:05:40 AM 40.6861 -90.1606 84° East 510 587 39,000  Level Chicago Center
Tue 12:06:41 AM 40.6983 -89.9747 85° East 512 589 39,000  Level Chicago Center
Tue 12:07:41 AM 40.7164 -89.7906 83° East 511 588 39,000  Level Chicago Center
Tue 12:08:42 AM 40.7331 -89.6061 83° East 512 589 39,000  Level Chicago Center
Tue 12:09:43 AM 40.7497 -89.4022 84° East 510 587 39,000  Level Chicago Center
Tue 12:10:44 AM 40.7642 -89.2178 84° East 507 583 39,000  Level Chicago Center
Tue 12:11:44 AM 40.7783 -89.0325 84° East 506 582 39,000  Level Chicago Center
Tue 12:12:45 AM 40.7928 -88.8353 84° East 507 583 39,000  Level Chicago Center
Tue 12:13:46 AM 40.8064 -88.6517 84° East 509 586 39,000  Level Chicago Center
Tue 12:14:46 AM 40.8189 -88.4672 85° East 509 586 39,000  Level Chicago Center
Tue 12:15:47 AM 40.8325 -88.2875 84° East 502 578 39,000  Level Chicago Center
Tue 12:16:48 AM 40.8458 -88.1061 84° East 503 579 39,000  Level Chicago Center
Tue 12:17:48 AM 40.8494 -87.9267 88° East 499 574 39,000  Level Chicago Center
Tue 12:18:49 AM 40.8331 -87.7444 97° East 504 580 39,000  Level Chicago Center
Tue 12:19:49 AM 40.8189 -87.5239 95° East 508 585 39,000  Level Chicago Center
Tue 12:20:50 AM 40.8042 -87.3414 96° East 506 582 39,000  Level Chicago Center
Tue 12:21:51 AM 40.8033 -87.1567 90° East 510 587 39,000  Level Chicago Center
Tue 12:22:51 AM 40.8181 -86.9722 84° East 511 588 39,000  Level Chicago Center
Tue 12:23:52 AM 40.8319 -86.7889 84° East 508 585 39,000  Level Chicago Center
Tue 12:24:52 AM 40.8458 -86.6072 84° East 505 581 39,000  Level Chicago Center
Tue 12:25:53 AM 40.8578 -86.4256 85° East 506 582 39,000  Level Chicago Center
Tue 12:26:54 AM 40.8711 -86.2428 84° East 505 581 39,000  Level Chicago Center
Tue 12:27:54 AM 40.8831 -86.0583 85° East 506 582 39,000  Level Chicago Center
Tue 12:28:55 AM 40.8956 -85.8753 85° East 504 580 39,000  Level Chicago Center
Tue 12:29:55 AM 40.9081 -85.6900 85° East 507 583 39,000  Level Chicago Center
Tue 12:30:56 AM 40.9181 -85.5050 86° East 509 586 39,000  Level Chicago Center
Tue 12:31:56 AM 40.9303 -85.3197 85° East 510 587 39,000  Level Chicago Center
Tue 12:32:57 AM 40.9433 -85.1000 85° East 506 582 39,000  Level Chicago Center
Tue 12:33:57 AM 40.9544 -84.9156 85° East 506 582 39,000  Level Chicago Center
Tue 12:34:58 AM 40.9647 -84.7294 86° East 510 587 39,000  Level Chicago Center
Tue 12:35:58 AM 40.9731 -84.5425 87° East 511 588 39,000  Level Chicago Center
Tue 12:36:58 AM 40.9561 -84.3539 97° East 520 598 39,000  Level Chicago Center
Tue 12:37:59 AM 40.9386 -84.1683 97° East 514 592 39,000  Level Chicago Center
Tue 12:38:59 AM 40.9214 -83.9814 97° East 515 593 39,000  Level Chicago Center
Tue 12:40:00 AM 40.9017 -83.7953 98° East 514 592 39,000  Level Chicago Center
Tue 12:41:00 AM 40.8828 -83.6089 98° East 514 592 39,000  Level Chicago Center
Tue 12:42:01 AM 40.8642 -83.4219 97° East 514 592 39,000  Level Chicago Center
Tue 12:43:08 AM 40.8419 -83.1961 97° East 509 586 39,000 -898 Level Cleveland Center
Tue 12:44:08 AM 40.8225 -83.0281 99° East 515 593 37,100 -2,250 Descending Cleveland Center
Tue 12:45:08 AM 40.8036 -82.8406 98° East 515 593 34,500 -2,550 Descending Cleveland Center
Tue 12:46:08 AM 40.7803 -82.6397 99° East 506 582 32,000 -2,350 Descending Cleveland Center
Tue 12:47:08 AM 40.7583 -82.4608 99° East 501 577 29,800 -1,950 Descending Cleveland Center
Tue 12:48:08 AM 40.7419 -82.3069 98° East 496 571 28,100 -1,900 Descending Cleveland Center
Tue 12:49:08 AM 40.7236 -82.1392 98° East 474 545 26,000 -2,000 Descending Cleveland Center
Tue 12:50:08 AM 40.7047 -81.9772 99° East 456 525 24,100 -1,950 Descending Cleveland Center
Tue 12:51:08 AM 40.6878 -81.8208 98° East 442 509 22,100 -1,900 Descending Cleveland Center
Tue 12:52:08 AM 40.6686 -81.6644 99° East 430 495 20,300 -1,800 Descending Cleveland Center
Tue 12:53:08 AM 40.6511 -81.5136 99° East 425 489 18,500 -1,900 Descending Cleveland Center
Tue 12:54:08 AM 40.6336 -81.3656 99° East 413 475 16,500 -1,950 Descending Cleveland Center
Tue 12:55:08 AM 40.6158 -81.2203 99° East 406 467 14,600 -1,900 Descending Cleveland Center
Tue 12:56:08 AM 40.6019 -81.0781 97° East 401 461 12,700 -1,800 Descending Cleveland Center
Tue 12:57:08 AM 40.5981 -80.9358 92° East 396 456 11,000 -1,400 Descending Cleveland Center
Tue 12:58:08 AM 40.5922 -80.8019 93° East 378 435 9,900 -550 Descending Cleveland Center
Tue 12:59:08 AM 40.5883 -80.6842 92° East 352 405 9,900 -800 Level Cleveland Center
Tue 01:00:08 AM 40.5842 -80.5667 93° East 328 377 8,300 -1,550 Descending Cleveland Center
Tue 01:01:08 AM 40.5819 -80.4519 91° East 323 372 6,800 -1,221 Descending Cleveland Center
Tue 01:02:01 AM 40.5794 -80.3425 92° East 300 345 6,000 -658 Descending FAA TRACON SMA TRACON (SMA)
Tue 01:02:21 AM 40.5794 -80.3103 90° East 284 327 6,000  Level FAA TRACON SMA TRACON (SMA)
Tue 01:02:40 AM 40.5794 -80.2794 90° East 270 311 6,000 -150 Level FAA TRACON SMA TRACON (SMA)
Tue 01:03:01 AM 40.5800 -80.2519 88° East 266 306 5,900  Descending FAA TRACON SMA TRACON (SMA)
Tue 01:03:20 AM 40.5792 -80.2156 92° East 232 267 6,000 -300 Climbing FAA TRACON SMA TRACON (SMA)
Tue 01:03:41 AM 40.5792 -80.1897 90° East 224 258 5,700 -878 Descending FAA TRACON SMA TRACON (SMA)
Tue 01:04:01 AM 40.5792 -80.1675 90° East 226 260 5,400 -1,231 Descending FAA TRACON SMA TRACON (SMA)
Tue 01:04:20 AM 40.5792 -80.1333 90° East 219 252 4,900 -1,500 Descending FAA TRACON SMA TRACON (SMA)
Tue 01:04:41 AM 40.5772 -80.1100 96° East 209 241 4,400 -1,350 Descending FAA TRACON SMA TRACON (SMA)
Tue 01:05:00 AM 40.5669 -80.0944 131° Southeast 171 197 4,000 -1,350 Descending FAA TRACON SMA TRACON (SMA)
Tue 01:05:21 AM 40.5514 -80.0919 173° South 146 168 3,500 -1,317 Descending FAA TRACON SMA TRACON (SMA)
Tue 01:05:41 AM 40.5394 -80.0931 184° South 142 163 3,100 -923 Descending FAA TRACON SMA TRACON (SMA)
Tue 01:06:00 AM 40.5275 -80.0947 186° South 140 161 2,900 -600 Descending FAA TRACON SMA TRACON (SMA)
Tue 01:06:21 AM 40.5133 -80.1011 199° South 136 157 2,700 -450 Descending FAA TRACON SMA TRACON (SMA)
Tue 01:06:40 AM 40.5033 -80.1083 209° Southwest 131 151 2,600 -600 Descending FAA TRACON SMA TRACON (SMA)
Tue 01:07:01 AM 40.4939 -80.1161 212° Southwest 128 147 2,300 -732 Descending FAA TRACON SMA TRACON (SMA)
Tue 01:07:21 AM 40.4875 -80.1253 227° Southwest 123 142 2,100 -462 Descending FAA TRACON SMA TRACON (SMA)
Tue 01:07:40 AM 40.4833 -80.1425 252° West 122 140 2,000 -300 Descending FAA TRACON SMA TRACON (SMA)
Tue 01:08:01 AM 40.4836 -80.1561 272° West 128 147 1,900 -450 Descending FAA TRACON SMA TRACON (SMA)
Tue 01:08:20 AM 40.4842 -80.1703 273° West 125 144 1,700 -750 Descending FAA TRACON SMA TRACON (SMA)
Tue 01:08:41 AM 40.4856 -80.1869 276° West 127 146 1,400 -732 Descending FAA TRACON SMA TRACON (SMA)
Tue 01:09:01 AM 40.4853 -80.2028 269° West 128 147 1,200 -600 Descending FAA TRACON SMA TRACON (SMA)

Login

Don't have an account? Register now (free) for customized features, flight alerts, and more!